createdAt,value
2023-10-04T00:00:56.024Z,42.84
2023-10-04T00:01:55.943Z,42.85
2023-10-04T00:02:57.004Z,42.85
2023-10-04T00:03:56.040Z,42.83
2023-10-04T00:04:56.085Z,42.84
2023-10-04T00:05:55.974Z,42.86
2023-10-04T00:06:55.920Z,42.88
2023-10-04T00:07:56.957Z,42.89
2023-10-04T00:08:55.853Z,42.89
2023-10-04T00:09:55.902Z,42.93
2023-10-04T00:10:55.849Z,42.93
2023-10-04T00:11:55.853Z,42.96
2023-10-04T00:12:55.902Z,42.96
2023-10-04T00:14:03.305Z,42.97
2023-10-04T00:14:55.896Z,42.98
2023-10-04T00:15:55.848Z,42.98
2023-10-04T00:16:55.886Z,42.98
2023-10-04T00:17:55.903Z,42.99
2023-10-04T00:18:55.806Z,42.98
2023-10-04T00:19:56.772Z,42.99
2023-10-04T00:20:55.807Z,43.00
2023-10-04T00:21:55.721Z,42.99
2023-10-04T00:22:55.718Z,43.00
2023-10-04T00:23:55.807Z,43.00
2023-10-04T00:24:55.744Z,42.96
2023-10-04T00:25:56.695Z,42.95
2023-10-04T00:26:55.741Z,42.95
2023-10-04T00:27:55.705Z,42.96
2023-10-04T00:28:55.610Z,43.01
2023-10-04T00:29:55.668Z,43.00
2023-10-04T00:30:55.620Z,43.00
2023-10-04T00:31:56.592Z,43.02
2023-10-04T00:32:55.694Z,43.01
2023-10-04T00:33:55.721Z,43.03
2023-10-04T00:34:55.577Z,43.06
2023-10-04T00:35:55.775Z,43.06
2023-10-04T00:36:55.563Z,43.08
2023-10-04T00:37:56.471Z,43.07
2023-10-04T00:38:55.641Z,43.08
2023-10-04T00:39:55.545Z,43.07
2023-10-04T00:40:55.520Z,43.10
2023-10-04T00:41:55.681Z,43.08
2023-10-04T00:42:56.421Z,43.09
2023-10-04T00:43:55.409Z,43.10
2023-10-04T00:44:55.483Z,43.11
2023-10-04T00:45:55.458Z,43.12
2023-10-04T00:46:55.544Z,43.13
2023-10-04T00:47:55.484Z,43.15
2023-10-04T00:48:56.396Z,43.15
2023-10-04T00:49:55.407Z,43.13
2023-10-04T00:50:55.367Z,43.13
2023-10-04T00:51:55.400Z,43.13
2023-10-04T00:52:55.323Z,43.15
2023-10-04T00:53:56.340Z,43.15
2023-10-04T00:54:55.317Z,43.15
2023-10-04T00:55:55.370Z,43.18
2023-10-04T00:56:55.252Z,43.19
2023-10-04T00:57:55.235Z,43.19
2023-10-04T00:58:56.174Z,43.19
2023-10-04T00:59:55.213Z,43.19
2023-10-04T01:00:55.916Z,43.20
2023-10-04T01:01:55.218Z,43.20
2023-10-04T01:02:55.275Z,43.21
2023-10-04T01:03:56.240Z,43.22
2023-10-04T01:04:55.209Z,43.21
2023-10-04T01:05:55.159Z,43.22
2023-10-04T01:06:55.201Z,43.24
2023-10-04T01:07:55.105Z,43.22
2023-10-04T01:08:56.030Z,43.22
2023-10-04T01:09:55.083Z,43.23
2023-10-04T01:10:55.094Z,43.23
2023-10-04T01:11:55.090Z,43.24
2023-10-04T01:12:55.105Z,43.23
2023-10-04T01:13:55.077Z,43.23
2023-10-04T01:14:55.966Z,43.23
2023-10-04T01:15:55.185Z,43.22
2023-10-04T01:16:55.542Z,43.24
2023-10-04T01:17:55.118Z,43.22
2023-10-04T01:18:55.100Z,43.23
2023-10-04T01:19:55.057Z,43.23
2023-10-04T01:20:55.898Z,43.24
2023-10-04T01:21:54.914Z,43.24
2023-10-04T01:22:54.946Z,43.26
2023-10-04T01:23:55.003Z,43.27
2023-10-04T01:24:54.927Z,43.28
2023-10-04T01:25:54.909Z,43.27
2023-10-04T01:26:55.841Z,43.26
2023-10-04T01:27:54.873Z,43.27
2023-10-04T01:28:55.064Z,43.26
2023-10-04T01:29:54.838Z,43.26
2023-10-04T01:30:54.830Z,43.26
2023-10-04T01:31:55.807Z,43.26
2023-10-04T01:32:54.972Z,43.28
2023-10-04T01:33:54.905Z,43.28
2023-10-04T01:34:54.764Z,43.30
2023-10-04T01:35:54.823Z,43.31
2023-10-04T01:36:55.766Z,43.31
2023-10-04T01:37:54.732Z,43.28
2023-10-04T01:38:54.707Z,43.29
2023-10-04T01:39:54.747Z,43.28
2023-10-04T01:40:54.791Z,43.29
2023-10-04T01:41:54.679Z,43.33
2023-10-04T01:42:55.668Z,43.32
2023-10-04T01:43:54.692Z,43.33
2023-10-04T01:44:54.690Z,43.33
2023-10-04T01:45:54.680Z,43.31
2023-10-04T01:46:54.716Z,43.31
2023-10-04T01:47:54.677Z,43.33
2023-10-04T01:48:55.732Z,43.32
2023-10-04T01:49:54.585Z,43.32
2023-10-04T01:50:54.594Z,43.32
2023-10-04T01:51:55.602Z,43.33
2023-10-04T01:52:54.571Z,43.33
2023-10-04T01:53:55.531Z,43.35
2023-10-04T01:54:54.514Z,43.35
2023-10-04T01:55:54.524Z,43.34
2023-10-04T01:56:54.564Z,43.38
2023-10-04T01:57:54.475Z,43.37
2023-10-04T01:58:54.438Z,43.35
2023-10-04T01:59:55.409Z,43.35
2023-10-04T02:00:54.646Z,43.36
2023-10-04T02:01:54.608Z,43.37
2023-10-04T02:02:54.520Z,43.34
2023-10-04T02:03:54.618Z,43.35
2023-10-04T02:04:54.476Z,43.35
2023-10-04T02:05:55.403Z,43.34
2023-10-04T02:06:54.368Z,43.37
2023-10-04T02:07:54.381Z,43.37
2023-10-04T02:08:54.414Z,43.38
2023-10-04T02:09:54.324Z,43.37
2023-10-04T02:10:54.402Z,43.40
2023-10-04T02:11:55.344Z,43.42
2023-10-04T02:12:54.315Z,43.41
2023-10-04T02:13:54.272Z,43.41
2023-10-04T02:14:54.280Z,43.41
2023-10-04T02:15:54.283Z,43.40
2023-10-04T02:16:55.233Z,43.42
2023-10-04T02:17:54.275Z,43.42
2023-10-04T02:18:54.201Z,43.42
2023-10-04T02:19:54.257Z,43.41
2023-10-04T02:20:54.176Z,43.42
2023-10-04T02:21:55.183Z,43.41
2023-10-04T02:22:54.165Z,43.42
2023-10-04T02:23:54.190Z,43.42
2023-10-04T02:24:54.156Z,43.43
2023-10-04T02:25:54.104Z,43.42
2023-10-04T02:26:55.097Z,43.44
2023-10-04T02:27:54.144Z,43.44
2023-10-04T02:28:54.141Z,43.46
2023-10-04T02:29:54.090Z,43.44
2023-10-04T02:30:54.171Z,43.43
2023-10-04T02:31:55.140Z,43.41
2023-10-04T02:32:54.104Z,43.44
2023-10-04T02:33:54.121Z,43.41
2023-10-04T02:34:53.995Z,43.42
2023-10-04T02:35:54.057Z,43.42
2023-10-04T02:36:55.064Z,43.44
2023-10-04T02:37:53.983Z,43.45
2023-10-04T02:38:53.959Z,43.47
2023-10-04T02:39:53.981Z,43.47
2023-10-04T02:40:53.930Z,43.49
2023-10-04T02:41:53.947Z,43.49
2023-10-04T02:42:54.930Z,43.50
2023-10-04T02:43:53.952Z,43.52
2023-10-04T02:44:53.897Z,43.53
2023-10-04T02:45:53.890Z,43.54
2023-10-04T02:46:53.912Z,43.54
2023-10-04T02:47:54.951Z,43.55
2023-10-04T02:48:53.923Z,43.59
2023-10-04T02:49:53.876Z,43.59
2023-10-04T02:50:53.834Z,43.62
2023-10-04T02:51:53.886Z,43.61
2023-10-04T02:52:53.844Z,43.63
2023-10-04T02:53:54.736Z,43.62
2023-10-04T02:54:53.747Z,43.64
2023-10-04T02:55:53.764Z,43.63
2023-10-04T02:56:53.773Z,43.63
2023-10-04T02:57:53.745Z,43.64
2023-10-04T02:58:54.668Z,43.65
2023-10-04T02:59:53.916Z,43.65
2023-10-04T03:00:53.764Z,43.67
2023-10-04T03:01:53.672Z,43.67
2023-10-04T03:02:53.798Z,43.70
2023-10-04T03:03:54.684Z,43.70
2023-10-04T03:04:53.684Z,43.71
2023-10-04T03:05:53.670Z,43.73
2023-10-04T03:06:53.617Z,43.70
2023-10-04T03:07:53.657Z,43.73
2023-10-04T03:08:53.605Z,43.73
2023-10-04T03:09:54.533Z,43.71
2023-10-04T03:10:53.718Z,43.70
2023-10-04T03:11:53.530Z,43.71
2023-10-04T03:12:53.517Z,43.71
2023-10-04T03:13:53.599Z,43.72
2023-10-04T03:14:53.546Z,43.73
2023-10-04T03:15:54.487Z,43.72
2023-10-04T03:16:53.487Z,43.75
2023-10-04T03:17:53.579Z,43.76
2023-10-04T03:18:53.635Z,43.77
2023-10-04T03:19:53.433Z,43.79
2023-10-04T03:20:54.463Z,43.79
2023-10-04T03:21:53.509Z,43.80
2023-10-04T03:22:53.518Z,43.80
2023-10-04T03:23:53.394Z,43.79
2023-10-04T03:24:53.401Z,43.79
2023-10-04T03:25:53.341Z,43.81
2023-10-04T03:26:54.354Z,43.81
2023-10-04T03:27:53.548Z,43.79
2023-10-04T03:28:53.411Z,43.78
2023-10-04T03:29:53.333Z,43.78
2023-10-04T03:30:53.378Z,43.79
2023-10-04T03:31:54.355Z,43.78
2023-10-04T03:32:53.343Z,43.80
2023-10-04T03:33:53.486Z,43.81
2023-10-04T03:34:53.285Z,43.81
2023-10-04T03:35:53.233Z,43.83
2023-10-04T03:36:53.206Z,43.84
2023-10-04T03:37:54.129Z,43.83
2023-10-04T03:38:53.259Z,43.83
2023-10-04T03:39:53.205Z,43.83
2023-10-04T03:40:53.162Z,43.84
2023-10-04T03:41:53.235Z,43.83
2023-10-04T03:42:54.113Z,43.84
2023-10-04T03:43:53.136Z,43.85
2023-10-04T03:44:53.144Z,43.85
2023-10-04T03:45:53.118Z,43.86
2023-10-04T03:46:53.206Z,43.85
2023-10-04T03:47:53.092Z,43.86
2023-10-04T03:48:54.115Z,43.86
2023-10-04T03:49:53.177Z,43.85
2023-10-04T03:50:53.038Z,43.86
2023-10-04T03:51:53.020Z,43.87
2023-10-04T03:52:52.998Z,43.89
2023-10-04T03:53:53.065Z,43.89
2023-10-04T03:54:53.994Z,43.89
2023-10-04T03:55:53.022Z,43.90
2023-10-04T03:56:53.103Z,43.92
2023-10-04T03:57:52.928Z,43.90
2023-10-04T03:59:56.451Z,43.57
2023-10-04T04:00:56.673Z,43.91
2023-10-04T04:01:56.473Z,44.03
2023-10-04T04:02:57.040Z,44.10
2023-10-04T04:03:56.801Z,44.13
2023-10-04T04:04:57.875Z,44.14
2023-10-04T04:05:57.502Z,44.12
2023-10-04T04:06:56.365Z,44.10
2023-10-04T04:07:56.300Z,44.08
2023-10-04T04:08:56.333Z,44.06
2023-10-04T04:09:57.201Z,44.05
2023-10-04T04:10:56.308Z,44.05
2023-10-04T04:11:56.567Z,44.03
2023-10-04T04:12:56.275Z,43.99
2023-10-04T04:13:56.269Z,43.98
2023-10-04T04:14:56.437Z,43.96
2023-10-04T04:15:57.259Z,43.94
2023-10-04T04:16:56.439Z,43.95
2023-10-04T04:17:56.316Z,43.94
2023-10-04T04:18:56.457Z,43.94
2023-10-04T04:19:56.497Z,43.93
2023-10-04T04:20:57.277Z,43.95
2023-10-04T04:21:56.441Z,43.96
2023-10-04T04:22:56.151Z,43.96
2023-10-04T04:23:56.179Z,43.97
2023-10-04T04:24:56.316Z,43.96
2023-10-04T04:25:57.091Z,43.96
2023-10-04T04:26:56.126Z,43.97
2023-10-04T04:27:56.248Z,43.95
2023-10-04T04:28:56.476Z,43.95
2023-10-04T04:29:56.018Z,43.95
2023-10-04T04:30:57.164Z,43.95
2023-10-04T04:31:56.093Z,43.95
2023-10-04T04:32:56.102Z,43.95
2023-10-04T04:33:55.999Z,43.95
2023-10-04T04:34:56.021Z,43.97
2023-10-04T04:36:02.210Z,43.97
2023-10-04T04:36:56.006Z,43.96
2023-10-04T04:37:55.969Z,43.96
2023-10-04T04:38:55.949Z,43.96
2023-10-04T04:39:55.996Z,43.97
2023-10-04T04:40:57.972Z,43.97
2023-10-04T04:41:55.934Z,43.98
2023-10-04T04:42:55.936Z,44.01
2023-10-04T04:43:55.903Z,44.01
2023-10-04T04:44:55.958Z,44.00
2023-10-04T04:45:55.872Z,44.00
2023-10-04T04:46:56.859Z,44.01
2023-10-04T04:47:55.948Z,44.02
2023-10-04T04:48:55.866Z,44.02
2023-10-04T04:49:55.971Z,44.03
2023-10-04T04:50:55.786Z,44.03
2023-10-04T04:51:56.778Z,44.03
2023-10-04T04:52:55.892Z,44.04
2023-10-04T04:53:55.834Z,44.04
2023-10-04T04:54:55.881Z,44.03
2023-10-04T04:55:55.716Z,44.03
2023-10-04T04:56:56.630Z,44.04
2023-10-04T04:57:55.943Z,44.03
2023-10-04T04:58:55.708Z,44.02
2023-10-04T04:59:55.763Z,44.02
2023-10-04T05:00:55.666Z,44.04
2023-10-04T05:01:56.603Z,44.03
2023-10-04T05:02:55.794Z,44.03
2023-10-04T05:03:55.800Z,44.03
2023-10-04T05:04:55.724Z,44.03
2023-10-04T05:05:56.660Z,44.03
2023-10-04T05:06:56.583Z,44.03
2023-10-04T05:07:55.538Z,44.03
2023-10-04T05:08:56.019Z,44.02
2023-10-04T05:09:55.574Z,44.01
2023-10-04T05:10:55.641Z,44.00
2023-10-04T05:11:55.697Z,43.99
2023-10-04T05:12:56.416Z,43.98
2023-10-04T05:13:55.516Z,43.97
2023-10-04T05:14:55.569Z,43.95
2023-10-04T05:15:55.710Z,43.95
2023-10-04T05:16:55.490Z,43.96
2023-10-04T05:17:55.491Z,43.94
2023-10-04T05:18:56.481Z,43.95
2023-10-04T05:19:55.401Z,43.97
2023-10-04T05:20:55.582Z,43.97
2023-10-04T05:21:55.462Z,43.95
2023-10-04T05:22:55.463Z,43.94
2023-10-04T05:23:55.352Z,43.95
2023-10-04T05:24:56.334Z,43.93
2023-10-04T05:25:55.315Z,43.92
2023-10-04T05:26:55.424Z,43.91
2023-10-04T05:27:55.534Z,43.91
2023-10-04T05:28:55.305Z,43.90
2023-10-04T05:29:56.299Z,43.87
2023-10-04T05:30:56.271Z,43.86
2023-10-04T05:31:56.551Z,43.88
2023-10-04T05:32:55.410Z,43.87
2023-10-04T05:33:55.584Z,43.84
2023-10-04T05:34:55.216Z,43.83
2023-10-04T05:35:56.246Z,43.81
2023-10-04T05:36:56.206Z,43.79
2023-10-04T05:37:55.356Z,43.78
2023-10-04T05:38:55.273Z,43.75
2023-10-04T05:39:55.249Z,43.73
2023-10-04T05:40:55.181Z,43.72
2023-10-04T05:41:56.143Z,43.71
2023-10-04T05:42:55.254Z,43.71
2023-10-04T05:43:55.251Z,43.67
2023-10-04T05:44:55.257Z,43.65
2023-10-04T05:45:55.241Z,43.61
2023-10-04T05:46:55.156Z,43.59
2023-10-04T05:47:56.209Z,43.61
2023-10-04T05:48:55.365Z,43.61
2023-10-04T05:49:55.105Z,43.61
2023-10-04T05:50:55.085Z,43.60
2023-10-04T05:51:55.117Z,43.58
2023-10-04T05:52:55.915Z,43.56
2023-10-04T05:53:55.069Z,43.55
2023-10-04T05:54:55.010Z,43.54
2023-10-04T05:55:55.015Z,43.52
2023-10-04T05:56:55.196Z,43.49
2023-10-04T05:57:54.918Z,43.50
2023-10-04T05:58:55.970Z,43.49
2023-10-04T05:59:55.253Z,43.50
2023-10-04T06:00:55.277Z,43.48
2023-10-04T06:01:54.939Z,43.46
2023-10-04T06:02:54.979Z,43.44
2023-10-04T06:03:55.826Z,43.44
2023-10-04T06:04:56.262Z,43.42
2023-10-04T06:05:54.795Z,43.41
2023-10-04T06:06:54.796Z,43.41
2023-10-04T06:07:54.914Z,43.40
2023-10-04T06:09:01.368Z,43.39
2023-10-04T06:09:56.572Z,43.34
2023-10-04T06:10:55.035Z,43.28
2023-10-04T06:11:54.827Z,43.25
2023-10-04T06:12:54.917Z,43.26
2023-10-04T06:13:54.774Z,43.26
2023-10-04T06:14:55.690Z,43.25
2023-10-04T06:15:55.423Z,43.23
2023-10-04T06:16:54.771Z,43.21
2023-10-04T06:17:54.821Z,43.21
2023-10-04T06:18:54.859Z,43.22
2023-10-04T06:19:55.711Z,43.22
2023-10-04T06:20:54.677Z,43.22
2023-10-04T06:21:54.912Z,43.20
2023-10-04T06:22:54.699Z,43.16
2023-10-04T06:23:54.570Z,43.12
2023-10-04T06:24:54.674Z,43.07
2023-10-04T06:25:55.501Z,42.99
2023-10-04T06:26:54.578Z,42.96
2023-10-04T06:27:54.621Z,42.94
2023-10-04T06:28:54.513Z,42.93
2023-10-04T06:29:54.515Z,42.90
2023-10-04T06:30:55.494Z,42.86
2023-10-04T06:31:54.523Z,42.83
2023-10-04T06:32:54.574Z,42.76
2023-10-04T06:33:54.518Z,42.68
2023-10-04T06:34:55.239Z,42.69
2023-10-04T06:35:54.466Z,42.70
2023-10-04T06:36:55.439Z,42.71
2023-10-04T06:37:54.398Z,42.67
2023-10-04T06:38:54.550Z,42.67
2023-10-04T06:39:54.451Z,42.67
2023-10-04T06:40:54.484Z,42.64
2023-10-04T06:41:56.034Z,42.56
2023-10-04T06:42:54.557Z,42.46
2023-10-04T06:43:54.445Z,42.39
2023-10-04T06:44:54.582Z,42.39
2023-10-04T06:45:54.390Z,42.41
2023-10-04T06:46:55.316Z,42.29
2023-10-04T06:47:55.967Z,42.19
2023-10-04T06:48:54.293Z,42.09
2023-10-04T06:49:54.297Z,42.02
2023-10-04T06:50:54.517Z,42.03
2023-10-04T06:51:55.237Z,41.98
2023-10-04T06:52:54.226Z,41.95
2023-10-04T06:53:54.338Z,41.97
2023-10-04T06:54:54.191Z,41.91
2023-10-04T06:55:55.700Z,41.79
2023-10-04T06:56:54.410Z,41.69
2023-10-04T06:57:56.035Z,41.75
2023-10-04T06:58:54.152Z,41.82
2023-10-04T06:59:54.243Z,41.79
2023-10-04T07:00:54.238Z,41.88
2023-10-04T07:01:54.184Z,41.95
2023-10-04T07:02:54.382Z,42.00
2023-10-04T07:03:55.213Z,42.01
2023-10-04T07:04:54.110Z,41.99
2023-10-04T07:05:54.372Z,41.98
2023-10-04T07:06:54.092Z,41.95
2023-10-04T07:07:54.043Z,41.93
2023-10-04T07:08:55.173Z,41.97
2023-10-04T07:09:54.091Z,42.04
2023-10-04T07:10:54.808Z,42.07
2023-10-04T07:11:54.171Z,42.09
2023-10-04T07:12:54.073Z,42.11
2023-10-04T07:13:54.894Z,42.17
2023-10-04T07:14:54.245Z,42.25
2023-10-04T07:15:54.363Z,42.27
2023-10-04T07:16:54.082Z,42.25
2023-10-04T07:17:54.414Z,42.23
2023-10-04T07:18:54.131Z,42.17
2023-10-04T07:19:54.822Z,42.15
2023-10-04T07:20:53.922Z,42.15
2023-10-04T07:21:53.898Z,42.12
2023-10-04T07:22:53.817Z,42.08
2023-10-04T07:23:53.878Z,42.03
2023-10-04T07:24:55.610Z,41.96
2023-10-04T07:25:54.774Z,41.93
2023-10-04T07:26:53.868Z,41.90
2023-10-04T07:27:53.748Z,41.86
2023-10-04T07:28:53.841Z,41.78
2023-10-04T07:29:53.754Z,41.78
2023-10-04T07:30:54.760Z,41.76
2023-10-04T07:31:53.805Z,41.67
2023-10-04T07:32:53.879Z,41.55
2023-10-04T07:33:53.713Z,41.46
2023-10-04T07:34:53.742Z,41.35
2023-10-04T07:35:55.716Z,41.24
2023-10-04T07:36:53.714Z,41.25
2023-10-04T07:37:53.659Z,41.33
2023-10-04T07:38:54.015Z,41.29
2023-10-04T07:39:53.697Z,41.27
2023-10-04T07:40:54.626Z,41.32
2023-10-04T07:41:53.679Z,41.38
2023-10-04T07:42:53.636Z,41.40
2023-10-04T07:43:53.954Z,41.40
2023-10-04T07:44:53.553Z,41.41
2023-10-04T07:45:54.681Z,41.43
2023-10-04T07:46:53.613Z,41.41
2023-10-04T07:47:53.602Z,41.37
2023-10-04T07:48:53.672Z,41.35
2023-10-04T07:49:53.555Z,41.36
2023-10-04T07:50:56.122Z,41.42
2023-10-04T07:51:53.535Z,41.39
2023-10-04T07:52:53.481Z,41.29
2023-10-04T07:53:53.636Z,41.19
2023-10-04T07:54:53.528Z,41.16
2023-10-04T07:55:53.458Z,41.25
2023-10-04T07:56:54.539Z,41.28
2023-10-04T07:57:53.456Z,41.28
2023-10-04T07:58:53.563Z,41.27
2023-10-04T07:59:53.420Z,41.18
2023-10-04T08:00:54.218Z,41.09
2023-10-04T08:01:53.633Z,40.97
2023-10-04T08:02:54.366Z,40.95
2023-10-04T08:03:53.514Z,40.97
2023-10-04T08:04:53.335Z,41.03
2023-10-04T08:05:53.397Z,40.96
2023-10-04T08:06:53.401Z,40.89
2023-10-04T08:07:54.225Z,40.82
2023-10-04T08:08:54.009Z,40.65
2023-10-04T08:09:53.380Z,40.45
2023-10-04T08:10:53.461Z,40.32
2023-10-04T08:11:53.251Z,40.36
2023-10-04T08:12:53.433Z,40.40
2023-10-04T08:13:54.370Z,40.49
2023-10-04T08:14:53.164Z,40.55
2023-10-04T08:15:53.385Z,40.43
2023-10-04T08:16:53.367Z,40.31
2023-10-04T08:17:53.444Z,40.21
2023-10-04T08:18:59.524Z,40.15
2023-10-04T08:19:53.121Z,40.11
2023-10-04T08:20:53.164Z,40.04
2023-10-04T08:21:53.213Z,40.05
2023-10-04T08:22:53.239Z,40.16
2023-10-04T08:23:53.218Z,40.20
2023-10-04T08:24:54.297Z,40.23
2023-10-04T08:25:53.100Z,40.41
2023-10-04T08:26:53.054Z,40.56
2023-10-04T08:27:53.186Z,40.66
2023-10-04T08:28:53.012Z,40.71
2023-10-04T08:29:52.990Z,40.79
2023-10-04T08:30:54.012Z,40.92
2023-10-04T08:31:53.094Z,40.97
2023-10-04T08:32:53.024Z,40.88
2023-10-04T08:33:53.008Z,40.79
2023-10-04T08:34:52.954Z,40.84
2023-10-04T08:35:53.109Z,40.80
2023-10-04T08:36:53.960Z,40.63
2023-10-04T08:37:52.996Z,40.57
2023-10-04T08:38:52.910Z,40.82
2023-10-04T08:39:53.045Z,41.02
2023-10-04T08:40:53.005Z,41.08
2023-10-04T08:41:53.883Z,41.03
2023-10-04T08:42:53.112Z,40.80
2023-10-04T08:43:52.857Z,40.60
2023-10-04T08:44:52.846Z,40.50
2023-10-04T08:45:53.887Z,40.45
2023-10-04T08:46:54.697Z,40.34
2023-10-04T08:47:52.926Z,40.19
2023-10-04T08:48:52.935Z,40.31
2023-10-04T08:49:52.911Z,40.63
2023-10-04T08:50:52.739Z,40.90
2023-10-04T08:51:52.836Z,41.04
2023-10-04T08:52:53.606Z,41.12
2023-10-04T08:53:52.958Z,41.04
2023-10-04T08:54:52.696Z,40.84
2023-10-04T08:55:53.060Z,40.71
2023-10-04T08:56:52.686Z,40.48
2023-10-04T08:57:52.675Z,40.37
2023-10-04T08:58:53.720Z,40.31
2023-10-04T08:59:52.624Z,40.38
2023-10-04T09:00:52.698Z,40.33
2023-10-04T09:01:52.764Z,40.04
2023-10-04T09:02:52.562Z,39.88
2023-10-04T09:03:52.920Z,39.90
2023-10-04T09:04:53.674Z,39.96
2023-10-04T09:05:52.588Z,39.76
2023-10-04T09:06:52.578Z,39.62
2023-10-04T09:07:52.772Z,39.52
2023-10-04T09:08:52.794Z,39.64
2023-10-04T09:09:53.699Z,39.55
2023-10-04T09:10:52.829Z,39.28
2023-10-04T09:11:52.445Z,39.21
2023-10-04T09:12:59.588Z,39.24
2023-10-04T09:13:54.081Z,39.34
2023-10-04T09:14:55.071Z,39.49
2023-10-04T09:15:53.414Z,39.70
2023-10-04T09:16:52.559Z,39.80
2023-10-04T09:17:52.427Z,39.77
2023-10-04T09:18:52.474Z,39.92
2023-10-04T09:19:52.578Z,40.25
2023-10-04T09:20:52.405Z,40.50
2023-10-04T09:21:53.972Z,40.71
2023-10-04T09:22:52.567Z,40.83
2023-10-04T09:23:52.486Z,40.84
2023-10-04T09:24:52.302Z,40.80
2023-10-04T09:25:52.381Z,40.80
2023-10-04T09:26:52.227Z,40.73
2023-10-04T09:27:53.372Z,40.73
2023-10-04T09:28:52.273Z,40.81
2023-10-04T09:29:52.184Z,40.84
2023-10-04T09:30:52.448Z,40.79
2023-10-04T09:31:52.288Z,40.87
2023-10-04T09:32:53.215Z,41.06
2023-10-04T09:33:53.322Z,41.11
2023-10-04T09:34:52.223Z,41.07
2023-10-04T09:35:52.486Z,40.90
2023-10-04T09:36:52.184Z,40.57
2023-10-04T09:37:52.162Z,40.18
2023-10-04T09:38:52.940Z,39.92
2023-10-04T09:39:53.194Z,39.80
2023-10-04T09:40:52.192Z,39.63
2023-10-04T09:41:52.176Z,39.20
2023-10-04T09:42:52.119Z,39.12
2023-10-04T09:43:52.307Z,38.79
2023-10-04T09:44:52.378Z,38.37
2023-10-04T09:45:53.731Z,38.02
2023-10-04T09:46:52.050Z,37.66
2023-10-04T09:47:52.174Z,37.59
2023-10-04T09:48:52.012Z,37.67
2023-10-04T09:49:52.126Z,37.83
2023-10-04T09:50:53.231Z,37.91
2023-10-04T09:51:52.046Z,37.95
2023-10-04T09:52:51.909Z,38.26
2023-10-04T09:53:51.924Z,38.55
2023-10-04T09:54:51.913Z,38.76
2023-10-04T09:55:52.036Z,38.83
2023-10-04T09:56:52.969Z,38.85
2023-10-04T09:57:51.962Z,38.86
2023-10-04T09:58:51.978Z,38.70
2023-10-04T10:00:54.479Z,38.08
2023-10-04T10:01:55.299Z,38.75
2023-10-04T10:02:54.330Z,39.12
2023-10-04T10:03:54.488Z,39.14
2023-10-04T10:04:54.409Z,39.35
2023-10-04T10:05:54.249Z,39.39
2023-10-04T10:06:54.332Z,39.49
2023-10-04T10:07:55.152Z,39.61
2023-10-04T10:08:54.212Z,39.78
2023-10-04T10:10:00.565Z,39.82
2023-10-04T10:10:55.768Z,39.65
2023-10-04T10:11:54.180Z,39.68
2023-10-04T10:12:55.157Z,39.95
2023-10-04T10:13:54.145Z,40.33
2023-10-04T10:14:54.136Z,40.54
2023-10-04T10:15:54.104Z,40.54
2023-10-04T10:16:54.281Z,40.45
2023-10-04T10:17:55.057Z,40.17
2023-10-04T10:18:54.198Z,40.00
2023-10-04T10:19:54.057Z,40.41
2023-10-04T10:20:54.964Z,40.84
2023-10-04T10:21:54.154Z,41.09
2023-10-04T10:22:55.013Z,41.07
2023-10-04T10:23:54.226Z,40.72
2023-10-04T10:24:54.043Z,40.76
2023-10-04T10:25:53.979Z,40.81
2023-10-04T10:26:53.995Z,40.88
2023-10-04T10:28:25.838Z,40.63
2023-10-04T10:28:53.997Z,40.34
2023-10-04T10:29:53.907Z,40.67
2023-10-04T10:30:53.990Z,41.10
2023-10-04T10:31:53.940Z,41.47
2023-10-04T10:32:53.977Z,41.80
2023-10-04T10:33:54.956Z,42.11
2023-10-04T10:34:53.947Z,42.40
2023-10-04T10:35:53.893Z,42.56
2023-10-04T10:36:54.325Z,42.55
2023-10-04T10:37:53.902Z,42.54
2023-10-04T10:38:54.793Z,42.49
2023-10-04T10:39:53.826Z,42.52
2023-10-04T10:40:53.880Z,42.48
2023-10-04T10:41:53.891Z,42.18
2023-10-04T10:42:53.808Z,41.88
2023-10-04T10:44:09.451Z,41.47
2023-10-04T10:44:55.237Z,41.08
2023-10-04T10:45:53.801Z,40.99
2023-10-04T10:46:54.530Z,41.05
2023-10-04T10:47:59.594Z,41.14
2023-10-04T10:48:55.261Z,41.32
2023-10-04T10:49:54.658Z,41.24
2023-10-04T10:50:53.675Z,40.75
2023-10-04T10:51:53.746Z,40.16
2023-10-04T10:52:53.688Z,40.00
2023-10-04T10:53:53.608Z,39.79
2023-10-04T10:54:54.627Z,39.35
2023-10-04T10:55:53.605Z,38.98
2023-10-04T10:56:53.602Z,38.59
2023-10-04T10:57:53.620Z,38.71
2023-10-04T10:58:53.600Z,38.90
2023-10-04T10:59:53.580Z,39.05
2023-10-04T11:00:54.607Z,39.03
2023-10-04T11:01:53.564Z,39.23
2023-10-04T11:02:53.578Z,39.80
2023-10-04T11:03:53.539Z,40.26
2023-10-04T11:04:53.534Z,40.33
2023-10-04T11:05:54.417Z,40.28
2023-10-04T11:06:53.525Z,40.28
2023-10-04T11:07:53.494Z,40.34
2023-10-04T11:08:53.472Z,40.30
2023-10-04T11:09:54.281Z,40.05
2023-10-04T11:10:58.095Z,39.98
2023-10-04T11:11:53.474Z,40.23
2023-10-04T11:12:53.464Z,40.49
2023-10-04T11:13:53.546Z,40.81
2023-10-04T11:14:53.351Z,41.19
2023-10-04T11:15:54.362Z,41.60
2023-10-04T11:16:55.385Z,41.93
2023-10-04T11:17:53.372Z,42.13
2023-10-04T11:18:53.436Z,42.30
2023-10-04T11:19:53.294Z,42.44
2023-10-04T11:20:53.280Z,42.58
2023-10-04T11:21:54.329Z,42.66
2023-10-04T11:22:53.285Z,42.75
2023-10-04T11:23:53.230Z,42.58
2023-10-04T11:24:53.294Z,42.28
2023-10-04T11:25:53.274Z,42.08
2023-10-04T11:26:54.102Z,41.74
2023-10-04T11:27:53.303Z,40.48
2023-10-04T11:28:53.153Z,40.16
2023-10-04T11:29:53.187Z,39.57
2023-10-04T11:30:54.189Z,38.56
2023-10-04T11:31:53.173Z,37.79
2023-10-04T11:32:54.174Z,37.20
2023-10-04T11:33:53.148Z,37.05
2023-10-04T11:34:53.088Z,37.51
2023-10-04T11:35:53.093Z,37.31
2023-10-04T11:36:53.187Z,37.37
2023-10-04T11:37:53.063Z,37.23
2023-10-04T11:38:53.983Z,36.43
2023-10-04T11:39:53.159Z,36.31
2023-10-04T11:40:53.005Z,36.17
2023-10-04T11:41:53.036Z,36.93
2023-10-04T11:42:53.070Z,37.45
2023-10-04T11:43:52.996Z,36.79
2023-10-04T11:44:53.930Z,36.80
2023-10-04T11:45:53.057Z,37.24
2023-10-04T11:46:53.010Z,36.64
2023-10-04T11:47:52.988Z,37.08
2023-10-04T11:48:52.972Z,38.01
2023-10-04T11:49:53.824Z,38.84
2023-10-04T11:50:52.959Z,39.57
2023-10-04T11:51:53.182Z,40.19
2023-10-04T11:52:52.893Z,40.65
2023-10-04T11:53:52.870Z,41.10
2023-10-04T11:54:54.095Z,41.50
2023-10-04T11:55:52.810Z,41.84
2023-10-04T11:56:52.891Z,42.08
2023-10-04T11:57:52.815Z,42.21
2023-10-04T11:58:55.273Z,41.82
2023-10-04T11:59:52.781Z,41.53
2023-10-04T12:00:53.753Z,41.50
2023-10-04T12:01:53.469Z,41.45
2023-10-04T12:02:52.860Z,41.49
2023-10-04T12:03:52.958Z,41.45
2023-10-04T12:04:52.732Z,41.39
2023-10-04T12:05:52.759Z,41.43
2023-10-04T12:06:53.649Z,41.38
2023-10-04T12:07:52.661Z,41.35
2023-10-04T12:08:52.694Z,41.14
2023-10-04T12:09:52.653Z,41.03
2023-10-04T12:10:52.669Z,40.98
2023-10-04T12:11:52.866Z,40.84
2023-10-04T12:12:53.585Z,39.96
2023-10-04T12:13:52.647Z,38.83
2023-10-04T12:14:52.592Z,38.60
2023-10-04T12:15:52.584Z,37.72
2023-10-04T12:16:52.608Z,36.84
2023-10-04T12:17:53.573Z,36.86
2023-10-04T12:18:52.566Z,36.94
2023-10-04T12:19:52.700Z,36.70
2023-10-04T12:20:52.661Z,37.06
2023-10-04T12:21:52.544Z,37.41
2023-10-04T12:22:52.465Z,37.62
2023-10-04T12:23:53.407Z,38.16
2023-10-04T12:24:52.624Z,38.53
2023-10-04T12:25:52.557Z,38.75
2023-10-04T12:26:52.417Z,38.68
2023-10-04T12:27:52.441Z,38.45
2023-10-04T12:28:53.334Z,38.16
2023-10-04T12:29:52.416Z,38.24
2023-10-04T12:30:52.496Z,37.81
2023-10-04T12:31:52.442Z,37.32
2023-10-04T12:32:52.373Z,36.81
2023-10-04T12:33:53.330Z,36.28
2023-10-04T12:34:52.499Z,35.88
2023-10-04T12:35:52.361Z,35.52
2023-10-04T12:36:55.962Z,35.28
2023-10-04T12:37:52.288Z,35.80
2023-10-04T12:38:53.209Z,36.56
2023-10-04T12:39:52.326Z,37.26
2023-10-04T12:40:52.302Z,37.81
2023-10-04T12:41:52.246Z,37.77
2023-10-04T12:42:52.348Z,37.34
2023-10-04T12:43:53.254Z,36.75
2023-10-04T12:44:54.164Z,36.26
2023-10-04T12:45:52.292Z,36.32
2023-10-04T12:46:52.258Z,36.90
2023-10-04T12:47:52.289Z,37.29
2023-10-04T12:48:52.331Z,37.71
2023-10-04T12:49:53.132Z,38.02
2023-10-04T12:50:52.169Z,37.75
2023-10-04T12:51:52.244Z,37.37
2023-10-04T12:52:52.301Z,36.86
2023-10-04T12:53:52.093Z,36.34
2023-10-04T12:54:52.330Z,35.95